Time;durP1;ratioP1;P1;durP2;ratioP2;P2;SDS_P1;SDS_P2;PMS_P1;PMS_P2;Temp;Humidity;BMP_temperature;BMP_pressure;BME280_temperature;BME280_humidity;BME280_pressure;Samples;Min_cycle;Max_cycle;Signal;HPM_P1;HPM_P2
2022/01/07 00:02:19;;;;;;;10.40;6.78;;;;;;;7.96;100.00;100000.16;5011866;28;20049;-66
2022/01/07 00:04:45;;;;;;;9.43;6.80;;;;;;;8.59;100.00;100091.06;5012311;28;20484;-66
2022/01/07 00:07:10;;;;;;;10.88;7.63;;;;;;;8.26;100.00;100051.13;5010147;28;20029;-67
2022/01/07 00:09:36;;;;;;;12.10;7.20;;;;;;;8.37;100.00;100049.25;5010668;28;20033;-66
2022/01/07 00:12:04;;;;;;;10.18;7.20;;;;;;;8.62;100.00;100107.91;5011701;28;20029;-66
2022/01/07 00:14:30;;;;;;;10.63;7.05;;;;;;;8.35;100.00;100070.41;5010306;28;20036;-67
2022/01/07 00:16:55;;;;;;;10.88;6.97;;;;;;;8.18;100.00;100070.66;5011457;28;20037;-67
2022/01/07 00:19:21;;;;;;;8.60;6.28;;;;;;;8.44;100.00;100093.88;5011486;28;20412;-66
2022/01/07 00:21:46;;;;;;;11.18;6.95;;;;;;;8.07;100.00;100059.03;5011387;28;20030;-65
2022/01/07 00:24:12;;;;;;;9.63;7.00;;;;;;;8.08;100.00;100066.59;5010325;28;20037;-66
2022/01/07 00:26:37;;;;;;;9.73;6.45;;;;;;;8.31;100.00;100125.34;5010395;28;20503;-66
2022/01/07 00:29:03;;;;;;;10.60;7.28;;;;;;;8.11;100.00;100069.09;5011596;28;20026;-66
2022/01/07 00:31:29;;;;;;;10.15;6.63;;;;;;;8.21;100.00;100116.19;5011441;28;20034;-65
2022/01/07 00:33:54;;;;;;;11.35;7.55;;;;;;;8.10;100.00;100075.00;5011273;28;21491;-66
2022/01/07 00:36:19;;;;;;;10.55;7.32;;;;;;;8.15;100.00;100100.25;5011362;28;20484;-66
2022/01/07 00:38:45;;;;;;;9.77;6.80;;;;;;;8.34;100.00;100124.47;5011109;28;20630;-65
2022/01/07 00:41:10;;;;;;;8.90;6.00;;;;;;;8.45;100.00;100133.53;5009985;28;20028;-66
2022/01/07 00:43:36;;;;;;;8.63;5.90;;;;;;;8.62;100.00;100135.78;5009932;28;20036;-65
2022/01/07 00:46:01;;;;;;;9.95;5.60;;;;;;;8.22;100.00;100099.31;5009751;28;20044;-66
2022/01/07 00:48:27;;;;;;;11.63;6.00;;;;;;;8.18;100.00;100095.97;5010989;28;20033;-66
2022/01/07 00:50:52;;;;;;;10.60;6.20;;;;;;;8.16;100.00;100104.47;5010673;28;20041;-66
2022/01/07 00:53:18;;;;;;;8.48;6.05;;;;;;;8.30;100.00;100132.97;5010015;28;20124;-66
2022/01/07 00:55:43;;;;;;;7.97;5.95;;;;;;;8.35;100.00;100139.63;5009600;28;20029;-66
2022/01/07 00:58:09;;;;;;;8.38;6.32;;;;;;;8.28;100.00;100132.16;5009944;28;20029;-66
2022/01/07 01:03:09;;;;;;;8.50;5.72;;;;;;;8.56;100.00;100144.31;4076796;23;10000411;-66
2022/01/07 01:05:36;;;;;;;9.10;6.28;;;;;;;8.51;100.00;100148.66;4989776;28;20046;-66
2022/01/07 01:08:02;;;;;;;8.65;6.00;;;;;;;8.15;100.00;100096.03;4998666;28;20033;-67
2022/01/07 01:10:27;;;;;;;9.18;6.22;;;;;;;8.32;100.00;100132.06;5011003;28;20030;-66
2022/01/07 01:12:54;;;;;;;10.27;6.68;;;;;;;8.19;100.00;100112.00;5010860;28;20038;-68
2022/01/07 01:15:23;;;;;;;9.18;6.65;;;;;;;8.35;100.00;100149.75;4993202;28;20041;-66
2022/01/07 01:17:54;;;;;;;10.85;7.05;;;;;;;8.44;100.00;100164.78;4997364;28;20084;-66
2022/01/07 01:20:20;;;;;;;10.20;6.32;;;;;;;8.46;100.00;100155.47;4973590;28;20055;-66
2022/01/07 01:22:46;;;;;;;10.80;6.43;;;;;;;8.54;100.00;100152.81;4991284;28;20065;-66
2022/01/07 01:25:12;;;;;;;8.20;6.50;;;;;;;8.53;100.00;100149.47;4973933;28;20066;-66
2022/01/07 01:27:39;;;;;;;10.30;6.57;;;;;;;8.08;100.00;100091.91;4991089;28;20094;-66
2022/01/07 01:30:08;;;;;;;8.32;6.18;;;;;;;8.11;100.00;100106.22;4991152;28;20034;-67
2022/01/07 01:32:34;;;;;;;7.50;6.10;;;;;;;8.03;100.00;100101.28;4973729;28;20044;-68
2022/01/07 01:34:59;;;;;;;8.80;5.78;;;;;;;8.32;100.00;100149.78;4990910;28;20092;-68
2022/01/07 01:37:25;;;;;;;10.45;6.85;;;;;;;8.41;100.00;100158.94;4973603;28;20050;-67
2022/01/07 01:39:50;;;;;;;7.35;6.10;;;;;;;8.17;100.00;100113.72;4973647;28;20030;-68
2022/01/07 01:42:16;;;;;;;8.88;6.65;;;;;;;8.39;100.00;100153.06;4990755;28;20142;-68
2022/01/07 01:44:42;;;;;;;9.73;6.68;;;;;;;8.29;100.00;100154.91;4973645;28;20037;-68
2022/01/07 01:47:07;;;;;;;10.70;6.78;;;;;;;8.35;100.00;100157.34;4991261;28;20432;-68
2022/01/07 01:49:33;;;;;;;9.93;6.75;;;;;;;8.13;100.00;100127.28;4991100;28;20030;-67
2022/01/07 01:52:00;;;;;;;10.88;6.60;;;;;;;7.89;100.00;100077.88;4990914;28;20109;-68
2022/01/07 01:54:26;;;;;;;9.68;6.30;;;;;;;8.06;100.00;100113.88;4990943;28;20045;-65
2022/01/07 01:56:52;;;;;;;9.27;6.80;;;;;;;7.70;100.00;100064.69;4973512;28;20397;-67
2022/01/07 01:59:29;;;;;;;8.43;5.63;;;;;;;8.40;100.00;100173.31;4991040;28;20057;-66
2022/01/07 02:01:55;;;;;;;8.65;5.68;;;;;;;7.86;100.00;100093.13;4993681;28;20085;-66
2022/01/07 02:04:21;;;;;;;9.65;6.20;;;;;;;8.31;100.00;100170.09;5004226;28;20122;-66
2022/01/07 02:06:47;;;;;;;10.63;6.15;;;;;;;8.14;100.00;100144.16;5014373;28;20507;-66
2022/01/07 02:09:13;;;;;;;10.77;6.32;;;;;;;8.24;100.00;100174.38;5014047;28;20041;-66
2022/01/07 02:11:39;;;;;;;9.07;6.60;;;;;;;8.10;100.00;100143.34;5000381;28;20496;-66
2022/01/07 02:14:06;;;;;;;9.48;6.55;;;;;;;8.25;100.00;100168.50;4994374;28;20404;-65
2022/01/07 02:16:31;;;;;;;12.05;6.78;;;;;;;8.09;100.00;100121.44;4994335;28;20034;-66
2022/01/07 02:18:57;;;;;;;11.70;7.32;;;;;;;8.50;100.00;100174.81;4994303;28;20037;-65
2022/01/07 02:21:24;;;;;;;9.35;6.68;;;;;;;8.47;100.00;100185.03;4994271;28;20035;-66
2022/01/07 02:23:50;;;;;;;11.27;6.50;;;;;;;8.22;100.00;100142.34;4976330;28;20408;-65
2022/01/07 02:26:18;;;;;;;11.27;6.30;;;;;;;8.14;100.00;100139.09;4991987;28;20029;-65
2022/01/07 02:28:45;;;;;;;9.02;6.18;;;;;;;8.23;100.00;100187.91;4994144;28;20026;-66
2022/01/07 02:31:10;;;;;;;10.13;6.28;;;;;;;8.17;100.00;100182.94;4976599;28;20034;-66
2022/01/07 02:33:36;;;;;;;9.13;5.97;;;;;;;7.94;100.00;100161.34;4994268;28;20040;-65
2022/01/07 02:36:11;;;;;;;9.63;6.20;;;;;;;8.15;100.00;100199.00;4976194;28;20034;-66
2022/01/07 02:38:37;;;;;;;9.18;6.00;;;;;;;8.26;100.00;100203.06;4993736;28;20068;-66
2022/01/07 02:41:03;;;;;;;8.00;5.68;;;;;;;8.06;100.00;100169.56;4994092;28;20057;-66
2022/01/07 02:43:29;;;;;;;10.63;5.90;;;;;;;8.19;100.00;100198.94;4976593;28;20487;-66
2022/01/07 02:45:54;;;;;;;8.57;5.60;;;;;;;7.80;100.00;100121.88;4993730;28;20552;-66
2022/01/07 02:48:20;;;;;;;9.43;5.72;;;;;;;8.32;100.00;100195.38;4975996;28;20069;-65
2022/01/07 02:50:46;;;;;;;8.45;6.10;;;;;;;8.43;100.00;100218.88;4976141;28;20117;-66
2022/01/07 02:53:12;;;;;;;9.70;6.07;;;;;;;8.41;100.00;100202.00;4993900;28;20026;-65
2022/01/07 02:55:39;;;;;;;7.53;5.40;;;;;;;8.39;100.00;100203.72;5009256;28;20042;-66
2022/01/07 02:58:05;;;;;;;8.50;5.75;;;;;;;7.90;100.00;100123.41;5013038;28;20523;-66
2022/01/07 03:00:30;;;;;;;9.07;5.43;;;;;;;8.10;100.00;100170.38;5013434;28;20104;-66
2022/01/07 03:02:57;;;;;;;8.82;6.00;;;;;;;8.38;100.00;100213.00;4995288;28;20050;-66
2022/01/07 03:05:23;;;;;;;8.05;5.40;;;;;;;8.34;100.00;100216.44;4995213;28;20030;-66
2022/01/07 03:07:50;;;;;;;6.60;5.00;;;;;;;8.07;100.00;100176.31;4995000;28;20037;-65
2022/01/07 03:10:19;;;;;;;7.22;4.85;;;;;;;8.27;100.00;100221.66;5012741;28;20034;-66
2022/01/07 03:12:45;;;;;;;7.85;5.25;;;;;;;7.97;100.00;100182.38;5011922;28;20090;-66
2022/01/07 03:15:14;;;;;;;7.93;5.57;;;;;;;7.97;100.00;100189.97;4995218;28;20037;-66
2022/01/07 03:17:40;;;;;;;9.23;5.60;;;;;;;7.63;100.00;100145.75;5012780;28;20113;-67
2022/01/07 03:20:13;;;;;;;8.40;5.43;;;;;;;8.06;100.00;100240.47;4994877;28;20042;-65
2022/01/07 03:22:39;;;;;;;6.72;4.93;;;;;;;7.70;100.00;100191.19;4995001;28;20033;-66
2022/01/07 03:25:05;;;;;;;7.38;4.90;;;;;;;7.75;100.00;100198.72;4995233;28;20484;-66
2022/01/07 03:27:31;;;;;;;6.53;4.72;;;;;;;7.87;100.00;100201.06;4994894;28;20030;-67
2022/01/07 03:29:56;;;;;;;6.93;5.00;;;;;;;8.14;100.00;100227.72;5012689;28;20436;-66
2022/01/07 03:32:24;;;;;;;6.80;4.88;;;;;;;8.21;100.00;100224.22;5006997;28;20520;-66
2022/01/07 03:34:50;;;;;;;7.43;4.80;;;;;;;8.24;100.00;100247.81;5008986;28;20026;-66
2022/01/07 03:37:16;;;;;;;8.40;5.22;;;;;;;8.14;100.00;100208.28;4994440;28;20030;-66
2022/01/07 03:39:41;;;;;;;6.82;4.72;;;;;;;8.10;100.00;100215.97;5012789;28;20034;-67
2022/01/07 03:42:07;;;;;;;7.65;4.70;;;;;;;8.34;100.00;100259.50;5012290;28;20117;-66
2022/01/07 03:44:32;;;;;;;7.63;4.40;;;;;;;7.98;100.00;100216.97;4994538;28;20084;-66
2022/01/07 03:46:57;;;;;;;5.90;4.00;;;;;;;8.16;100.00;100262.25;5012407;28;20041;-66
2022/01/07 03:49:23;;;;;;;7.13;4.50;;;;;;;7.83;100.00;100200.28;5012381;28;20033;-66
2022/01/07 03:51:48;;;;;;;7.30;4.43;;;;;;;7.58;100.00;100161.00;5012238;28;20034;-65
2022/01/07 03:54:14;;;;;;;6.32;4.55;;;;;;;7.53;100.00;100161.88;5012172;28;20029;-65
2022/01/07 03:56:39;;;;;;;5.65;4.10;;;;;;;7.80;100.00;100215.50;4994294;28;20562;-66
2022/01/07 03:59:04;;;;;;;6.45;3.78;;;;;;;8.08;100.00;100264.06;5012382;28;20409;-66
2022/01/07 04:01:30;;;;;;;7.25;4.20;;;;;;;7.88;100.00;100241.53;5011925;28;20415;-66
2022/01/07 04:03:55;;;;;;;6.30;4.15;;;;;;;8.11;100.00;100284.28;4994254;28;20389;-66
2022/01/07 04:06:21;;;;;;;6.18;3.80;;;;;;;8.07;100.00;100285.19;4994008;28;20041;-66
2022/01/07 04:08:50;;;;;;;6.28;4.25;;;;;;;7.79;100.00;100225.66;5012427;28;20053;-66
2022/01/07 04:11:16;;;;;;;6.63;4.38;;;;;;;8.10;100.00;100296.97;5011866;28;20021;-66
2022/01/07 04:13:44;;;;;;;6.63;4.30;;;;;;;8.08;100.00;100291.91;5011497;28;20491;-66
2022/01/07 04:16:10;;;;;;;5.72;3.63;;;;;;;8.02;100.00;100278.53;4994099;28;20460;-67
2022/01/07 04:18:35;;;;;;;5.85;3.90;;;;;;;7.92;100.00;100300.59;4994035;28;20034;-66
2022/01/07 04:21:01;;;;;;;6.32;3.55;;;;;;;7.75;100.00;100259.44;4994008;28;20036;-66
2022/01/07 04:23:26;;;;;;;4.82;3.95;;;;;;;7.99;100.00;100296.25;4993896;28;20489;-66
2022/01/07 04:25:52;;;;;;;5.72;3.38;;;;;;;7.48;100.00;100212.56;4993948;28;20468;-66
2022/01/07 04:28:17;;;;;;;5.97;4.03;;;;;;;7.98;100.00;100299.66;4993762;28;20472;-66
2022/01/07 04:30:44;;;;;;;7.40;3.88;;;;;;;7.76;100.00;100281.38;4993704;28;20488;-67
2022/01/07 04:33:14;;;;;;;8.10;4.45;;;;;;;7.44;100.00;100251.38;5011466;28;20036;-66
2022/01/07 04:35:41;;;;;;;6.80;3.90;;;;;;;7.66;100.00;100294.97;5011129;28;20034;-67
2022/01/07 04:38:07;;;;;;;6.53;3.75;;;;;;;7.39;100.00;100264.94;5011637;28;20059;-66
2022/01/07 04:40:33;;;;;;;5.03;3.53;;;;;;;7.68;100.00;100316.03;4993893;28;20084;-66
2022/01/07 04:43:01;;;;;;;5.50;3.60;;;;;;;7.25;100.00;100256.66;4993613;28;20033;-66
2022/01/07 04:45:27;;;;;;;5.60;3.65;;;;;;;7.44;100.00;100279.19;5011458;28;20048;-66
2022/01/07 04:47:52;;;;;;;5.10;3.50;;;;;;;7.54;100.00;100295.97;5011219;28;20041;-66
2022/01/07 04:50:20;;;;;;;5.38;3.47;;;;;;;7.41;100.00;100276.69;4993612;28;20128;-66
2022/01/07 04:52:47;;;;;;;4.85;3.22;;;;;;;7.52;100.00;100291.75;5011279;28;20030;-66
2022/01/07 04:55:24;;;;;;;5.95;3.42;;;;;;;7.64;100.00;100339.69;5011212;28;20129;-66
2022/01/07 04:57:50;;;;;;;6.35;3.45;;;;;;;7.61;100.00;100339.72;4993351;28;20550;-66
2022/01/07 05:00:18;;;;;;;5.93;3.40;;;;;;;7.58;100.00;100333.00;4993058;28;20061;-65
2022/01/07 05:02:44;;;;;;;5.35;3.47;;;;;;;7.57;100.00;100330.47;4992957;28;20062;-66
2022/01/07 05:05:10;;;;;;;6.07;3.33;;;;;;;7.13;100.00;100254.25;5010915;28;20057;-68
2022/01/07 05:07:36;;;;;;;6.20;3.72;;;;;;;7.41;100.00;100293.53;5011014;28;20034;-65
2022/01/07 05:10:08;;;;;;;5.57;3.40;;;;;;;7.75;100.00;100355.59;5010859;28;20030;-66
2022/01/07 05:12:33;;;;;;;6.32;3.78;;;;;;;7.53;100.00;100318.72;5010734;28;20026;-67
2022/01/07 05:14:59;;;;;;;4.78;3.25;;;;;;;7.75;100.00;100361.50;5010446;28;20034;-67
2022/01/07 05:17:24;;;;;;;6.15;3.53;;;;;;;7.40;100.00;100320.56;4971247;28;20026;-68
2022/01/07 05:19:49;;;;;;;5.55;3.10;;;;;;;7.50;100.00;100324.66;4971859;28;20031;-66
2022/01/07 05:22:15;;;;;;;5.13;3.42;;;;;;;7.53;100.00;100333.88;4971759;28;20445;-66
2022/01/07 05:24:40;;;;;;;5.72;3.63;;;;;;;7.35;100.00;100303.75;4954364;28;20469;-69
2022/01/07 05:27:06;;;;;;;6.97;3.20;;;;;;;7.41;100.00;100328.94;4954303;28;20711;-68
2022/01/07 05:29:35;;;;;;;4.93;3.20;;;;;;;7.44;100.00;100328.94;4971544;28;20026;-66
2022/01/07 05:32:07;;;;;;;5.63;3.58;;;;;;;7.24;100.00;100303.00;4954443;28;20037;-66
2022/01/07 05:34:33;;;;;;;5.10;3.45;;;;;;;7.67;100.00;100367.47;4971726;28;20121;-68
2022/01/07 05:36:58;;;;;;;6.95;3.83;;;;;;;7.34;100.00;100330.72;4957194;28;20126;-68
2022/01/07 05:39:24;;;;;;;5.88;4.00;;;;;;;7.48;100.00;100354.19;4976104;28;20428;-69
2022/01/07 05:41:50;;;;;;;13.05;3.53;;;;;;;7.45;100.00;100330.59;4957748;28;20436;-67
2022/01/07 05:44:15;;;;;;;7.55;3.60;;;;;;;7.82;100.00;100403.59;4974825;28;20122;-68
2022/01/07 05:46:41;;;;;;;7.57;3.53;;;;;;;7.56;100.00;100351.59;4975431;28;20042;-68
2022/01/07 05:49:06;;;;;;;6.75;3.63;;;;;;;7.82;100.00;100393.47;5003834;28;20037;-68
2022/01/07 05:51:32;;;;;;;8.60;4.60;;;;;;;7.73;100.00;100382.59;5014068;28;20070;-68
2022/01/07 05:53:57;;;;;;;5.30;3.50;;;;;;;7.87;100.00;100401.88;4981866;28;20480;-68
2022/01/07 05:56:23;;;;;;;5.25;3.33;;;;;;;7.55;100.00;100362.53;4994739;28;20041;-69
2022/01/07 05:58:48;;;;;;;7.93;3.83;;;;;;;7.31;100.00;100327.38;4976593;28;20064;-68
2022/01/07 06:01:14;;;;;;;8.38;4.45;;;;;;;7.60;100.00;100376.84;4976827;28;20084;-70
2022/01/07 06:03:40;;;;;;;6.25;4.35;;;;;;;7.86;100.00;100425.47;4993972;28;20042;-69
2022/01/07 06:06:06;;;;;;;6.07;4.13;;;;;;;7.86;100.00;100425.47;4976216;28;20085;-69
2022/01/07 06:08:32;;;;;;;6.55;4.30;;;;;;;7.97;100.00;100440.56;4976256;28;20428;-69
2022/01/07 06:10:57;;;;;;;8.73;5.05;;;;;;;7.90;100.00;100436.44;4993332;28;20026;-69
2022/01/07 06:13:23;;;;;;;6.80;4.95;;;;;;;7.33;100.00;100354.31;4992599;28;20022;-68
2022/01/07 06:15:48;;;;;;;7.85;4.55;;;;;;;7.70;100.00;100416.38;4993136;28;20415;-68
2022/01/07 06:18:14;;;;;;;9.27;5.10;;;;;;;7.67;100.00;100440.84;4975806;28;20536;-68
2022/01/07 06:20:39;;;;;;;6.80;4.10;;;;;;;7.53;100.00;100414.84;4975887;28;20565;-69
2022/01/07 06:23:05;;;;;;;7.38;4.57;;;;;;;7.56;100.00;100399.66;4993390;28;20026;-69
2022/01/07 06:25:30;;;;;;;42.85;22.35;;;;;;;7.49;100.00;100408.97;4993601;28;20026;-68
2022/01/07 06:27:55;;;;;;;7.30;4.53;;;;;;;7.53;100.00;100410.63;4993803;28;20493;-68
2022/01/07 06:30:21;;;;;;;12.30;9.18;;;;;;;7.90;100.00;100474.41;4976403;28;20416;-69
2022/01/07 06:32:47;;;;;;;10.23;5.40;;;;;;;7.33;100.00;100389.72;4993870;28;20049;-69
2022/01/07 06:35:12;;;;;;;10.63;6.95;;;;;;;7.59;100.00;100427.44;4993614;28;20128;-69
2022/01/07 06:37:38;;;;;;;7.07;4.88;;;;;;;7.61;100.00;100435.84;4993759;28;20033;-68
2022/01/07 06:40:05;;;;;;;7.57;4.32;;;;;;;7.44;100.00;100409.88;4976192;28;20022;-68
2022/01/07 06:42:31;;;;;;;8.57;6.25;;;;;;;7.33;100.00;100399.03;4975882;28;20145;-69
2022/01/07 06:44:57;;;;;;;18.08;11.07;;;;;;;7.54;100.00;100444.34;4993859;28;20154;-68
2022/01/07 06:47:23;;;;;;;11.43;7.75;;;;;;;7.62;100.00;100455.25;4992402;28;20506;-68
2022/01/07 06:49:48;;;;;;;7.00;5.70;;;;;;;7.84;100.00;100495.53;4993381;28;20026;-69
2022/01/07 06:52:14;;;;;;;8.75;5.05;;;;;;;7.86;100.00;100501.41;4993546;28;20038;-68
2022/01/07 06:54:39;;;;;;;6.65;5.00;;;;;;;7.76;100.00;100473.69;4975891;28;20396;-68
2022/01/07 06:57:05;;;;;;;9.40;4.70;;;;;;;7.61;100.00;100446.81;4975336;28;20115;-69
2022/01/07 06:59:30;;;;;;;8.32;3.88;;;;;;;7.91;100.00;100483.66;4976000;28;20424;-69
2022/01/07 07:01:55;;;;;;;9.38;4.50;;;;;;;7.76;100.00;100448.38;4975678;28;20042;-69
2022/01/07 07:04:21;;;;;;;9.82;4.93;;;;;;;7.99;100.00;100498.78;4993170;28;20049;-69
2022/01/07 07:06:47;;;;;;;7.75;4.95;;;;;;;8.02;100.00;100501.28;4975877;28;20069;-68
2022/01/07 07:09:12;;;;;;;8.88;4.88;;;;;;;7.85;100.00;100492.16;4993467;28;20026;-69
2022/01/07 07:11:39;;;;;;;10.00;6.28;;;;;;;7.61;100.00;100446.81;4975222;28;20033;-69
2022/01/07 07:14:05;;;;;;;11.48;5.90;;;;;;;7.75;100.00;100464.41;4975691;28;20058;-69
2022/01/07 07:16:31;;;;;;;7.15;4.82;;;;;;;7.90;100.00;100492.13;4993086;28;20120;-69
2022/01/07 07:18:56;;;;;;;8.50;4.40;;;;;;;7.50;100.00;100417.41;4992991;28;20094;-69
2022/01/07 07:21:22;;;;;;;10.43;5.30;;;;;;;8.00;100.00;100501.31;4975464;28;20515;-69
2022/01/07 07:23:47;;;;;;;9.00;5.95;;;;;;;7.80;100.00;100447.50;4992952;28;20033;-68
2022/01/07 07:26:13;;;;;;;12.68;7.72;;;;;;;7.84;100.00;100452.50;4974996;28;20480;-69
2022/01/07 07:28:39;;;;;;;19.80;12.10;;;;;;;7.90;100.00;100460.03;4993045;28;20035;-69
2022/01/07 07:31:09;;;;;;;33.55;19.60;;;;;;;7.71;100.00;100437.44;4975302;28;20559;-69
2022/01/07 07:36:32;;;;;;;18.63;11.52;;;;;;;8.16;100.00;100497.75;4992133;28;20042;-68
2022/01/07 07:39:01;;;;;;;11.85;7.35;;;;;;;8.19;100.00;100509.56;4992619;28;20030;-69
2022/01/07 07:41:26;;;;;;;7.22;3.88;;;;;;;7.85;100.00;100463.47;4975172;28;20046;-69
2022/01/07 07:43:52;;;;;;;6.25;3.45;;;;;;;7.74;100.00;100417.19;4992467;28;20034;-69
2022/01/07 07:46:19;;;;;;;5.35;3.72;;;;;;;8.15;100.00;100501.16;4992515;28;20559;-69
2022/01/07 07:48:46;;;;;;;7.32;4.35;;;;;;;8.28;100.00;100496.84;4975032;28;20058;-69
2022/01/07 07:51:12;;;;;;;7.57;5.10;;;;;;;8.19;100.00;100501.97;4974595;28;20027;-69
2022/01/07 07:53:38;;;;;;;7.20;5.55;;;;;;;8.20;100.00;100506.19;4974942;28;20093;-69
2022/01/07 07:56:04;;;;;;;8.10;5.50;;;;;;;8.30;100.00;100493.44;4974733;28;20034;-69
2022/01/07 07:58:29;;;;;;;17.55;6.40;;;;;;;8.37;100.00;100502.66;4974332;28;20098;-69
2022/01/07 08:00:56;;;;;;;12.10;6.15;;;;;;;8.38;100.00;100501.78;4974766;28;20489;-69
2022/01/07 08:03:24;;;;;;;12.40;6.65;;;;;;;8.19;100.00;100452.16;4991862;28;20479;-69
2022/01/07 08:05:50;;;;;;;9.60;6.07;;;;;;;8.60;100.00;100503.22;4991923;28;20089;-69
2022/01/07 08:08:15;;;;;;;9.77;6.70;;;;;;;8.39;100.00;100495.88;4992171;28;20042;-69
2022/01/07 08:10:47;;;;;;;13.13;8.05;;;;;;;8.53;100.00;100488.13;4974423;28;20030;-70
2022/01/07 08:18:36;;;;;;;17.52;13.90;;;;;;;8.64;100.00;100504.88;4978734;28;20041;-70
2022/01/07 08:21:05;;;;;;;17.27;13.23;;;;;;;9.11;100.00;100523.72;4991547;28;20113;-70
2022/01/07 08:23:31;;;;;;;21.23;15.65;;;;;;;9.10;100.00;100524.56;4992094;28;20034;-69
2022/01/07 08:25:58;;;;;;;16.08;10.10;;;;;;;8.61;100.00;100448.31;4974176;28;20050;-69
2022/01/07 08:28:27;;;;;;;22.95;13.73;;;;;;;9.12;100.00;100522.84;4974028;28;20117;-71
2022/01/07 08:36:21;;;;;;;11.13;7.05;;;;;;;8.96;100.00;100470.66;4991743;28;20072;-70
2022/01/07 08:38:49;;;;;;;10.27;6.97;;;;;;;9.05;100.00;100476.44;4973955;28;20047;-70
2022/01/07 08:41:16;;;;;;;13.00;6.80;;;;;;;9.04;100.00;100468.88;4973966;28;20035;-70
2022/01/07 08:43:41;;;;;;;15.93;7.10;;;;;;;9.26;100.00;100526.06;4973849;28;20062;-70
2022/01/07 08:46:07;;;;;;;12.35;6.57;;;;;;;9.36;100.00;100528.44;4991313;28;20490;-70
2022/01/07 08:48:34;;;;;;;9.70;6.38;;;;;;;9.34;100.00;100512.41;4991764;28;20034;-68
2022/01/07 08:50:59;;;;;;;10.60;7.35;;;;;;;9.12;100.00;100467.91;4973957;28;20108;-68
2022/01/07 08:53:25;;;;;;;11.40;7.47;;;;;;;8.93;100.00;100435.22;4973747;28;20480;-68
2022/01/07 08:55:50;;;;;;;9.88;6.90;;;;;;;9.23;100.00;100485.53;4991084;28;20026;-68
2022/01/07 08:58:16;;;;;;;13.88;7.90;;;;;;;9.13;100.00;100458.59;4991365;28;20030;-68
2022/01/07 09:00:42;;;;;;;11.68;6.38;;;;;;;9.29;100.00;100513.34;4991286;28;20513;-67
2022/01/07 09:03:07;;;;;;;9.18;6.13;;;;;;;9.17;100.00;100495.75;4991139;28;20058;-68
2022/01/07 09:05:34;;;;;;;12.88;7.93;;;;;;;8.95;100.00;100486.75;4991139;28;20046;-68
2022/01/07 09:08:00;;;;;;;12.18;6.88;;;;;;;8.39;100.00;100490.81;4991104;28;20467;-70
2022/01/07 09:10:25;;;;;;;13.55;9.18;;;;;;;8.50;100.00;100514.31;4990311;28;20497;-70
2022/01/07 09:12:51;;;;;;;18.25;10.07;;;;;;;8.66;100.00;100525.13;4990870;28;20041;-69
2022/01/07 09:15:17;;;;;;;20.27;9.50;;;;;;;8.56;100.00;100473.72;4973620;28;20062;-69
2022/01/07 09:17:43;;;;;;;17.80;10.60;;;;;;;8.75;100.00;100515.72;4991094;28;20454;-68
2022/01/07 09:20:10;;;;;;;16.23;10.23;;;;;;;8.37;100.00;100468.88;4990969;28;20389;-69
2022/01/07 09:22:36;;;;;;;15.25;9.20;;;;;;;8.55;100.00;100478.81;4990936;28;20042;-70
2022/01/07 09:25:03;;;;;;;18.27;10.55;;;;;;;8.74;100.00;100501.38;4990840;28;20034;-68
2022/01/07 09:27:28;;;;;;;21.10;11.48;;;;;;;8.85;100.00;100513.94;4990836;28;20026;-67
2022/01/07 09:29:54;;;;;;;19.70;11.38;;;;;;;8.68;100.00;100467.66;4991173;28;20045;-68
2022/01/07 09:32:19;;;;;;;19.98;12.18;;;;;;;8.44;100.00;100432.47;4990949;28;20053;-68
2022/01/07 09:34:45;;;;;;;15.80;9.75;;;;;;;8.64;100.00;100489.66;4973257;28;20030;-68
2022/01/07 09:37:10;;;;;;;18.38;12.93;;;;;;;8.84;100.00;100517.31;4973452;28;20425;-68
2022/01/07 09:39:36;;;;;;;11.93;8.00;;;;;;;8.58;100.00;100472.00;4990770;28;20026;-68
2022/01/07 09:42:06;;;;;;;14.15;9.65;;;;;;;8.87;100.00;100491.09;4973058;28;20081;-68
2022/01/07 09:44:37;;;;;;;11.85;7.35;;;;;;;8.50;100.00;100476.31;4990845;28;20119;-68
2022/01/07 09:47:04;;;;;;;8.07;4.53;;;;;;;8.85;100.00;100520.69;4991183;28;20100;-67
2022/01/07 09:49:33;;;;;;;8.35;5.07;;;;;;;8.08;100.00;100443.81;4990780;28;20035;-67
2022/01/07 09:51:59;;;;;;;10.65;5.45;;;;;;;8.55;100.00;100532.88;4973245;28;20022;-68
2022/01/07 09:54:24;;;;;;;7.53;4.88;;;;;;;8.11;100.00;100476.72;4990428;28;20041;-67
2022/01/07 09:56:51;;;;;;;5.30;3.58;;;;;;;8.11;100.00;100502.03;4973139;28;20494;-69
2022/01/07 09:59:17;;;;;;;8.75;5.38;;;;;;;7.95;100.00;100439.75;4973299;28;20031;-68
2022/01/07 10:02:00;;;;;;;8.82;5.78;;;;;;;8.44;100.00;100551.53;4990295;28;20033;-67
2022/01/07 10:04:26;;;;;;;14.13;7.30;;;;;;;8.43;100.00;100538.06;4990627;28;20125;-67
2022/01/07 10:07:22;;;;;;;11.63;8.63;;;;;;;8.38;100.00;100536.41;4990501;28;20121;-67
2022/01/07 10:09:57;;;;;;;14.75;8.98;;;;;;;8.44;100.00;100539.72;4971433;28;20413;-67
2022/01/07 10:12:22;;;;;;;58.55;33.88;;;;;;;8.28;100.00;100505.28;4973073;28;20133;-67
2022/01/07 10:15:09;;;;;;;31.58;20.85;;;;;;;8.24;100.00;100498.53;4973093;28;20038;-67
2022/01/07 10:17:34;;;;;;;19.33;12.30;;;;;;;8.02;100.00;100456.56;4973211;28;20447;-67
2022/01/07 10:20:01;;;;;;;18.13;11.27;;;;;;;8.19;100.00;100469.03;4990692;28;20082;-67
2022/01/07 10:22:27;;;;;;;15.90;10.13;;;;;;;8.18;100.00;100474.97;4974935;28;20034;-67
2022/01/07 10:25:02;;;;;;;15.82;9.00;;;;;;;8.53;100.00;100537.09;4993951;28;20130;-68
2022/01/07 10:27:37;;;;;;;12.43;8.75;;;;;;;8.16;100.00;100469.91;4993912;28;20026;-67
2022/01/07 10:30:14;;;;;;;8.82;6.70;;;;;;;8.48;100.00;100536.31;4993766;28;20030;-67
2022/01/07 10:32:39;;;;;;;11.50;6.97;;;;;;;8.56;100.00;100532.00;4976205;28;20038;-68
2022/01/07 10:35:18;;;;;;;10.75;6.03;;;;;;;8.45;100.00;100531.28;4976232;28;20409;-68
2022/01/07 10:37:55;;;;;;;8.73;5.68;;;;;;;8.21;100.00;100521.34;4976295;28;20538;-68
2022/01/07 10:40:26;;;;;;;11.35;7.57;;;;;;;8.15;100.00;100498.63;4993470;28;20061;-68
2022/01/07 10:43:08;;;;;;;11.43;6.68;;;;;;;7.91;100.00;100483.66;4993911;28;20404;-68
2022/01/07 10:45:34;;;;;;;10.93;6.22;;;;;;;8.13;100.00;100540.00;4976255;28;20074;-68
2022/01/07 10:47:59;;;;;;;9.15;6.22;;;;;;;8.09;100.00;100536.66;4993512;28;20026;-68
2022/01/07 10:50:25;;;;;;;12.65;7.22;;;;;;;8.14;100.00;100537.44;4976050;28;20037;-68
2022/01/07 10:53:14;;;;;;;13.02;9.65;;;;;;;8.19;100.00;100538.25;4993314;28;20030;-68
2022/01/07 10:55:40;;;;;;;14.30;9.63;;;;;;;7.87;100.00;100464.28;4975954;28;20121;-68
2022/01/07 10:58:05;;;;;;;11.38;7.28;;;;;;;8.09;100.00;100535.81;4993392;28;20466;-67
2022/01/07 11:00:36;;;;;;;11.55;7.15;;;;;;;8.00;100.00;100540.97;4993363;28;20093;-68
2022/01/07 11:03:06;;;;;;;16.10;9.98;;;;;;;7.85;100.00;100542.78;4993384;28;20171;-68
2022/01/07 11:05:32;;;;;;;31.67;16.70;;;;;;;7.68;100.00;100495.69;4993804;28;20088;-68
2022/01/07 11:07:59;;;;;;;32.50;18.80;;;;;;;8.07;100.00;100545.97;4993330;28;20079;-68
2022/01/07 11:10:28;;;;;;;20.55;12.60;;;;;;;8.06;100.00;100534.16;4975366;28;20034;-68
2022/01/07 11:12:56;;;;;;;15.45;8.73;;;;;;;7.96;100.00;100537.63;4975694;28;20113;-68
2022/01/07 11:15:21;;;;;;;14.63;9.55;;;;;;;7.68;100.00;100491.47;4993378;28;20069;-67
2022/01/07 11:17:46;;;;;;;11.50;7.40;;;;;;;7.93;100.00;100535.13;4992824;28;20061;-68
2022/01/07 11:20:14;;;;;;;9.10;7.35;;;;;;;7.82;100.00;100496.41;4993344;28;20038;-68
2022/01/07 11:22:42;;;;;;;8.77;6.82;;;;;;;7.96;100.00;100542.69;4993028;28;20092;-68
2022/01/07 11:25:11;;;;;;;10.32;7.10;;;;;;;7.85;100.00;100545.31;4993018;28;20502;-69
2022/01/07 11:27:57;;;;;;;10.02;6.68;;;;;;;7.75;100.00;100550.44;4992918;28;20052;-68
2022/01/07 11:30:28;;;;;;;9.75;6.80;;;;;;;7.56;100.00;100516.00;4992616;28;20412;-67
2022/01/07 11:32:54;;;;;;;10.77;7.10;;;;;;;7.80;100.00;100543.66;4974938;28;20061;-67
2022/01/07 11:35:20;;;;;;;9.88;7.15;;;;;;;7.79;100.00;100550.41;4974823;28;20030;-67
2022/01/07 11:37:50;;;;;;;10.70;8.40;;;;;;;7.83;100.00;100558.81;4992754;28;20571;-68